Keesler Air Force Base
KBIX : now visible

Airfield :











YOU CAN JOIN US ON...

 
LOGIN :

Register | Disclaimer

   EN    FR    IT 

 









Legend :    VFR   Marginal VFR   IFR   Intensive IFR   Very Intensive IFR
Visi :
Ceiling :
>= 8 km
>= 3000ft
5 to 8 km
1000 to 3000 ft
1500m to 5 km
500 to 1000 ft
800 to 1500m
200 to 500 ft
< 800m
< 200 ft
Symbols :   Thunderstorms  Fog  Heavy snow  Heavy precipitations  Wind > 20 kt







- Airport Elevation : 33 ft


KBIX - Keesler Air Force Base

CURRENT METAR :
  • 252356Z AUTO 14006KT 10SM FEW085 20/18 A2978 RMK AO2 SLP087 60079 T02000183 10212 20183 55020

EXPIRED METARs :
  • 252256Z AUTO 14006KT 10SM FEW090 19/18 A2977 RMK AO2 RAE2156RAB2158E10 SLP084 P0000 T01930180
  • 252210Z AUTO 08006KT 10SM SCT055 19/18 A2974 RMK AO2 LTG DSNT S RAE2156RAB2158E10 PRESRR SLP074
  • 252158Z AUTO 09014KT 7SM RA BKN055 18/18 A2972 RMK AO2 RAE56RAB58 SLP067
  • 252144Z AUTO 09009KT 7SM RA VCTS OVC055 18/18 A2979 RMK AO2 TSB2059E14TSB29E44 PRESFR SLP091
  • 252129Z AUTO 32003KT 3SM TSRA BR OVC040 18/18 A2984 RMK AO2 TSB2059E14TSB29 SLP108

TAF AMD TAF KBIX
Valid from the 25 at 20:00 until the 27 at 00:00 UTC


252034Z 2520/2624 26012KT 8000 -SHRA SCT007 BKN012 OVC040 QNH2981INS
TEMPO 2520/2523 25025G35KT 1600 +TSRAGR BKN007CB OVC010
BECMG 2522/2523 27015G25KT 8000 -SHRA SCT010 SCT018 BKN030 QNH2980INS
BECMG 2607/2608 30010KT 9999 NSW SCT030 QNH2987INS
BECMG 2615/2616 32012G18KT 9999 SKC QNH2995INS TX24/2520Z TN19/2611Z
KZHU FIR / North America



MET'MAP, your aeronautical weather chart ! - Copyright ORBIFLY December 2007 - Disclaimer

ORBIFLY MET'MAP TEAM :

Programming & Development : Alexandra Zaïnal
Concept & Development : Baudouin d'Aumeries
Co-Development & Prog : Marc-Olivier Méhu
Technical & hardware support : Manuel Goepfert

Contact : metmap@orbifly.com




SOURCES & CREDITS :

   NOAA       Earth
Advisory